createdAt,value
2023-04-13T00:01:34.085Z,7.28
2023-04-13T00:04:06.309Z,7.28
2023-04-13T00:06:40.013Z,7.28
2023-04-13T00:09:11.046Z,7.29
2023-04-13T00:11:40.868Z,7.30
2023-04-13T00:14:11.251Z,7.31
2023-04-13T00:16:41.515Z,7.32
2023-04-13T00:19:13.078Z,7.34
2023-04-13T00:21:43.196Z,7.36
2023-04-13T00:24:13.536Z,7.36
2023-04-13T00:26:42.994Z,7.37
2023-04-13T00:29:13.993Z,7.39
2023-04-13T00:31:54.902Z,7.38
2023-04-13T00:34:30.155Z,7.37
2023-04-13T00:37:04.129Z,7.35
2023-04-13T00:39:34.239Z,7.31
2023-04-13T00:42:08.522Z,7.29
2023-04-13T00:44:39.501Z,7.26
2023-04-13T00:47:09.922Z,7.23
2023-04-13T00:49:41.887Z,7.19
2023-04-13T00:52:14.734Z,7.15
2023-04-13T00:54:45.271Z,7.13
2023-04-13T00:57:16.333Z,7.10
2023-04-13T00:59:50.008Z,7.07
2023-04-13T01:02:19.784Z,7.07
2023-04-13T01:04:51.343Z,7.06
2023-04-13T01:07:28.674Z,7.04
2023-04-13T01:10:05.968Z,7.02
2023-04-13T01:12:42.428Z,7.03
2023-04-13T01:15:15.078Z,7.01
2023-04-13T01:17:52.860Z,7.02
2023-04-13T01:20:31.122Z,7.02
2023-04-13T01:23:04.739Z,7.02
2023-04-13T01:25:42.434Z,7.02
2023-04-13T01:28:17.985Z,7.02
2023-04-13T01:30:49.405Z,7.02
2023-04-13T01:33:18.662Z,7.03
2023-04-13T01:35:47.607Z,7.04
2023-04-13T01:38:25.654Z,7.05
2023-04-13T01:40:57.438Z,7.07
2023-04-13T01:43:32.636Z,7.08
2023-04-13T01:46:11.974Z,7.08
2023-04-13T01:48:56.301Z,7.09
2023-04-13T01:51:38.151Z,7.10
2023-04-13T01:54:14.782Z,7.10
2023-04-13T01:56:49.030Z,7.11
2023-04-13T01:59:22.981Z,7.10
2023-04-13T02:01:59.251Z,7.10
2023-04-13T02:04:30.083Z,7.10
2023-04-13T02:07:02.016Z,7.11
2023-04-13T02:09:40.339Z,7.12
2023-04-13T02:12:09.645Z,7.13
2023-04-13T02:14:46.525Z,7.14
2023-04-13T02:17:16.668Z,7.15
2023-04-13T02:19:47.638Z,7.17
2023-04-13T02:22:16.799Z,7.18
2023-04-13T02:24:47.081Z,7.21
2023-04-13T02:27:18.082Z,7.23
2023-04-13T02:29:53.537Z,7.24
2023-04-13T02:32:22.264Z,7.24
2023-04-13T02:34:51.735Z,7.27
2023-04-13T02:37:20.946Z,7.27
2023-04-13T02:39:58.124Z,7.28
2023-04-13T02:42:28.084Z,7.29
2023-04-13T02:44:59.773Z,7.30
2023-04-13T02:47:33.180Z,7.31
2023-04-13T02:50:02.852Z,7.32
2023-04-13T02:52:50.358Z,7.33
2023-04-13T02:55:23.303Z,7.34
2023-04-13T02:58:13.855Z,7.33
2023-04-13T03:00:50.878Z,7.34
2023-04-13T03:03:23.812Z,7.33
2023-04-13T03:05:53.231Z,7.32
2023-04-13T03:08:27.331Z,7.32
2023-04-13T03:11:17.320Z,7.32
2023-04-13T03:13:59.035Z,7.32
2023-04-13T03:16:40.063Z,7.33
2023-04-13T03:19:12.007Z,7.35
2023-04-13T03:21:46.361Z,7.35
2023-04-13T03:24:20.997Z,7.37
2023-04-13T03:26:54.176Z,7.37
2023-04-13T03:29:32.968Z,7.40
2023-04-13T03:32:03.057Z,7.41
2023-04-13T03:34:48.528Z,7.43
2023-04-13T03:37:18.956Z,7.47
2023-04-13T03:39:51.891Z,7.49
2023-04-13T03:42:25.651Z,7.49
2023-04-13T03:45:03.435Z,7.50
2023-04-13T03:47:35.781Z,7.53
2023-04-13T03:50:09.332Z,7.54
2023-04-13T03:52:43.302Z,7.54
2023-04-13T03:55:16.407Z,7.55
2023-04-13T03:57:51.030Z,7.56
2023-04-13T04:00:26.773Z,7.59
2023-04-13T04:03:11.472Z,7.58
2023-04-13T04:05:52.806Z,7.59
2023-04-13T04:08:23.092Z,7.58
2023-04-13T04:10:55.969Z,7.56
2023-04-13T04:13:26.293Z,7.55
2023-04-13T04:16:00.434Z,7.50
2023-04-13T04:18:34.328Z,7.47
2023-04-13T04:21:16.900Z,7.43
2023-04-13T04:24:00.788Z,7.40
2023-04-13T04:26:32.270Z,7.37
2023-04-13T04:29:03.353Z,7.33
2023-04-13T04:31:37.413Z,7.31
2023-04-13T04:34:12.246Z,7.29
2023-04-13T04:36:53.091Z,7.27
2023-04-13T04:39:24.061Z,7.24
2023-04-13T04:42:06.176Z,7.22
2023-04-13T04:44:37.461Z,7.19
2023-04-13T04:47:09.816Z,7.16
2023-04-13T04:49:58.070Z,7.13
2023-04-13T04:52:27.205Z,7.09
2023-04-13T04:54:59.736Z,7.06
2023-04-13T04:57:31.233Z,7.04
2023-04-13T05:00:00.236Z,7.03
2023-04-13T05:02:31.717Z,7.03
2023-04-13T05:05:03.944Z,7.02
2023-04-13T05:07:33.586Z,7.01
2023-04-13T05:10:07.311Z,7.01
2023-04-13T05:12:40.768Z,7.00
2023-04-13T05:15:18.765Z,7.01
2023-04-13T05:17:51.453Z,6.98
2023-04-13T05:20:22.856Z,7.00
2023-04-13T05:23:05.093Z,7.00
2023-04-13T05:25:39.744Z,7.01
2023-04-13T05:28:16.239Z,7.00
2023-04-13T05:30:53.688Z,7.01
2023-04-13T05:33:24.174Z,7.03
2023-04-13T05:35:59.537Z,7.04
2023-04-13T05:38:29.352Z,7.06
2023-04-13T05:40:59.690Z,7.07
2023-04-13T05:43:29.381Z,7.09
2023-04-13T05:45:58.929Z,7.10
2023-04-13T05:48:28.136Z,7.11
2023-04-13T05:51:06.924Z,7.11
2023-04-13T05:53:42.151Z,7.12
2023-04-13T05:56:15.592Z,7.16
2023-04-13T05:58:48.926Z,7.16
2023-04-13T06:01:23.342Z,7.19
2023-04-13T06:03:54.060Z,7.22
2023-04-13T06:06:30.583Z,7.23
2023-04-13T06:09:01.240Z,7.26
2023-04-13T06:11:30.811Z,7.28
2023-04-13T06:14:04.315Z,7.30
2023-04-13T06:16:33.832Z,7.32
2023-04-13T06:19:03.818Z,7.34
2023-04-13T06:21:36.934Z,7.35
2023-04-13T06:24:07.582Z,7.37
2023-04-13T06:26:41.744Z,7.40
2023-04-13T06:29:10.743Z,7.42
2023-04-13T06:31:56.316Z,7.44
2023-04-13T06:34:26.741Z,7.47
2023-04-13T06:36:59.455Z,7.50
2023-04-13T06:39:32.924Z,7.54
2023-04-13T06:42:02.829Z,7.56
2023-04-13T06:44:50.640Z,7.61
2023-04-13T06:47:26.378Z,7.63
2023-04-13T06:49:58.109Z,7.67
2023-04-13T06:52:29.505Z,7.69
2023-04-13T06:54:59.041Z,7.71
2023-04-13T06:57:37.918Z,7.74
2023-04-13T07:00:22.181Z,7.77
2023-04-13T07:02:59.340Z,7.82
2023-04-13T07:05:29.093Z,7.86
2023-04-13T07:08:08.733Z,7.91
2023-04-13T07:10:41.263Z,7.95
2023-04-13T07:13:22.442Z,8.01
2023-04-13T07:15:52.084Z,8.05
2023-04-13T07:18:24.835Z,8.09
2023-04-13T07:21:02.950Z,8.14
2023-04-13T07:23:42.545Z,8.19
2023-04-13T07:26:15.570Z,8.22
2023-04-13T07:32:31.664Z,8.32
2023-04-13T07:35:02.548Z,8.34
2023-04-13T07:37:37.373Z,8.36
2023-04-13T07:40:16.299Z,8.38
2023-04-13T07:42:59.293Z,8.38
2023-04-13T07:45:35.181Z,8.38
2023-04-13T07:48:13.857Z,8.37
2023-04-13T07:50:44.692Z,8.38
2023-04-13T07:53:19.366Z,8.38
2023-04-13T07:56:45.352Z,8.39
2023-04-13T07:59:25.164Z,8.42
2023-04-13T08:02:01.660Z,8.45
2023-04-13T08:04:37.383Z,8.48
2023-04-13T08:07:11.655Z,8.51
2023-04-13T08:09:43.603Z,8.52
2023-04-13T08:12:12.890Z,8.55
2023-04-13T08:14:48.547Z,8.56
2023-04-13T08:17:21.078Z,8.59
2023-04-13T08:19:50.113Z,8.62
2023-04-13T08:22:23.021Z,8.65
2023-04-13T08:24:54.690Z,8.69
2023-04-13T08:27:23.805Z,8.73
2023-04-13T08:30:05.375Z,8.78
2023-04-13T08:32:48.056Z,8.84
2023-04-13T08:35:22.681Z,8.90
2023-04-13T08:37:52.701Z,8.95
2023-04-13T08:40:27.432Z,8.98
2023-04-13T08:43:02.852Z,9.02
2023-04-13T08:45:35.262Z,9.03
2023-04-13T08:48:05.695Z,9.04
2023-04-13T08:50:40.032Z,9.03
2023-04-13T08:53:11.119Z,9.03
2023-04-13T08:55:45.317Z,9.02
2023-04-13T08:58:27.339Z,8.98
2023-04-13T09:00:59.116Z,8.95
2023-04-13T09:03:34.203Z,8.94
2023-04-13T09:06:13.243Z,8.93
2023-04-13T09:08:59.213Z,8.94
2023-04-13T09:11:54.702Z,8.95
2023-04-13T09:14:27.832Z,8.97
2023-04-13T09:17:04.650Z,8.98
2023-04-13T09:20:04.796Z,8.98
2023-04-13T09:22:45.589Z,9.01
2023-04-13T09:25:35.548Z,9.04
2023-04-13T09:28:08.583Z,9.10
2023-04-13T09:30:37.287Z,9.15
2023-04-13T09:33:08.720Z,9.23
2023-04-13T09:35:48.055Z,9.29
2023-04-13T09:38:44.577Z,9.37
2023-04-13T09:41:31.233Z,9.44
2023-04-13T09:44:04.732Z,9.50
2023-04-13T09:46:34.317Z,9.53
2023-04-13T09:49:09.580Z,9.54
2023-04-13T09:51:39.281Z,9.54
2023-04-13T09:54:15.525Z,9.56
2023-04-13T09:56:45.583Z,9.56
2023-04-13T09:59:16.057Z,9.55
2023-04-13T10:01:55.919Z,9.54
2023-04-13T10:04:27.328Z,9.55
2023-04-13T10:07:02.052Z,9.55
2023-04-13T10:09:42.386Z,9.55
2023-04-13T10:12:14.261Z,9.60
2023-04-13T10:15:00.619Z,9.64
2023-04-13T10:17:56.353Z,9.67
2023-04-13T10:20:31.459Z,9.73
2023-04-13T10:23:01.845Z,9.76
2023-04-13T10:25:36.760Z,9.80
2023-04-13T10:28:08.601Z,9.85
2023-04-13T10:30:51.508Z,9.84
2023-04-13T10:33:24.000Z,9.84
2023-04-13T10:35:59.391Z,9.86
2023-04-13T10:38:51.350Z,9.89
2023-04-13T10:41:29.003Z,9.92
2023-04-13T10:44:11.134Z,9.93
2023-04-13T10:46:42.627Z,9.94
2023-04-13T10:49:19.185Z,9.95
2023-04-13T10:52:00.551Z,9.97
2023-04-13T10:54:39.382Z,10.02
2023-04-13T10:57:15.632Z,10.03
2023-04-13T10:59:59.178Z,10.06
2023-04-13T11:02:40.965Z,10.08
2023-04-13T11:05:25.924Z,10.11
2023-04-13T11:07:59.149Z,10.16
2023-04-13T11:10:30.369Z,10.23
2023-04-13T11:13:03.207Z,10.31
2023-04-13T11:15:54.043Z,10.40
2023-04-13T11:18:30.428Z,10.48
2023-04-13T11:21:08.979Z,10.52
2023-04-13T11:23:41.254Z,10.55
2023-04-13T11:26:11.278Z,10.57
2023-04-13T11:28:46.405Z,10.60
2023-04-13T11:31:17.149Z,10.61
2023-04-13T11:33:52.573Z,10.61
2023-04-13T11:36:26.447Z,10.61
2023-04-13T11:39:11.155Z,10.64
2023-04-13T11:41:56.354Z,10.68
2023-04-13T11:44:35.419Z,10.73
2023-04-13T11:47:29.410Z,10.79
2023-04-13T11:50:00.616Z,10.85
2023-04-13T11:52:32.620Z,10.92
2023-04-13T11:55:22.322Z,11.00
2023-04-13T11:58:10.917Z,11.11
2023-04-13T12:00:51.803Z,11.14
2023-04-13T12:03:38.344Z,11.11
2023-04-13T12:06:13.144Z,11.09
2023-04-13T12:08:43.171Z,11.07
2023-04-13T12:11:40.411Z,11.05
2023-04-13T12:14:14.460Z,11.00
2023-04-13T12:19:30.459Z,11.01
2023-04-13T12:22:07.077Z,11.06
2023-04-13T12:24:42.964Z,11.14
2023-04-13T12:27:20.484Z,11.23
2023-04-13T12:29:50.975Z,11.36
2023-04-13T12:32:29.786Z,11.52
2023-04-13T12:35:03.961Z,11.66
2023-04-13T12:37:35.398Z,11.75
2023-04-13T12:40:10.448Z,11.79
2023-04-13T12:42:42.171Z,11.84
2023-04-13T12:45:14.180Z,11.91
2023-04-13T12:47:43.852Z,12.04
2023-04-13T12:50:18.661Z,12.18
2023-04-13T12:52:50.421Z,12.27
2023-04-13T12:55:22.413Z,12.32
2023-04-13T12:58:05.800Z,12.37
2023-04-13T13:00:43.075Z,12.43
2023-04-13T13:03:21.767Z,12.45
2023-04-13T13:05:52.151Z,12.39
2023-04-13T13:08:24.478Z,12.35
2023-04-13T13:10:55.152Z,12.32
2023-04-13T13:13:31.540Z,12.30
2023-04-13T13:16:03.710Z,12.36
2023-04-13T13:18:49.814Z,12.42
2023-04-13T13:21:25.846Z,12.46
2023-04-13T13:24:00.763Z,12.64
2023-04-13T13:26:44.929Z,12.86
2023-04-13T13:29:26.186Z,13.01
2023-04-13T13:31:57.414Z,13.16
2023-04-13T13:34:38.234Z,13.33
2023-04-13T13:37:13.995Z,13.45
2023-04-13T13:39:44.119Z,13.47
2023-04-13T13:42:15.717Z,13.47
2023-04-13T13:44:57.837Z,13.44
2023-04-13T13:47:30.238Z,13.40
2023-04-13T13:50:01.940Z,13.33
2023-04-13T13:52:55.340Z,13.31
2023-04-13T13:55:47.174Z,13.31
2023-04-13T13:58:20.868Z,13.32
2023-04-13T14:00:55.583Z,13.29
2023-04-13T14:03:29.023Z,13.22
2023-04-13T14:06:00.456Z,13.17
2023-04-13T14:08:40.876Z,13.29
2023-04-13T14:11:14.982Z,13.43
2023-04-13T14:13:50.629Z,13.51
2023-04-13T14:16:23.848Z,13.67
2023-04-13T14:18:55.879Z,13.93
2023-04-13T14:21:27.998Z,14.15
2023-04-13T14:23:59.140Z,14.38
2023-04-13T14:26:31.967Z,14.56
2023-04-13T14:29:04.502Z,14.70
2023-04-13T14:31:43.583Z,14.84
2023-04-13T14:34:14.423Z,14.99
2023-04-13T14:36:45.641Z,15.12
2023-04-13T14:39:18.323Z,15.29
2023-04-13T14:41:49.490Z,15.54
2023-04-13T14:44:21.796Z,15.63
2023-04-13T14:46:55.198Z,15.79
2023-04-13T14:49:26.116Z,15.88
2023-04-13T14:51:56.668Z,15.76
2023-04-13T14:54:33.448Z,15.67
2023-04-13T14:57:06.152Z,15.71
2023-04-13T14:59:35.538Z,15.83
2023-04-13T15:02:09.012Z,15.90
2023-04-13T15:04:38.797Z,15.74
2023-04-13T15:07:13.406Z,15.62
2023-04-13T15:09:45.124Z,15.58
2023-04-13T15:12:19.875Z,15.70
2023-04-13T15:14:51.351Z,15.73
2023-04-13T15:17:23.455Z,15.83
2023-04-13T15:19:56.472Z,15.90
2023-04-13T15:22:30.862Z,16.03
2023-04-13T15:25:02.374Z,16.10
2023-04-13T15:27:32.747Z,16.18
2023-04-13T15:30:06.385Z,16.31
2023-04-13T15:32:41.421Z,16.48
2023-04-13T15:35:13.815Z,16.43
2023-04-13T15:37:45.658Z,16.35
2023-04-13T15:40:20.158Z,16.25
2023-04-13T15:42:50.094Z,16.04
2023-04-13T15:45:19.398Z,15.88
2023-04-13T15:47:51.980Z,15.82
2023-04-13T15:50:23.501Z,15.77
2023-04-13T15:52:59.028Z,15.82
2023-04-13T15:55:31.227Z,15.83
2023-04-13T15:58:04.236Z,15.77
2023-04-13T16:00:42.510Z,15.76
2023-04-13T16:03:15.406Z,15.62
2023-04-13T16:05:45.256Z,15.52
2023-04-13T16:08:15.883Z,15.32
2023-04-13T16:10:47.588Z,15.19
2023-04-13T16:13:20.893Z,15.09
2023-04-13T16:15:59.163Z,15.07
2023-04-13T16:18:36.271Z,15.13
2023-04-13T16:21:13.156Z,15.13
2023-04-13T16:23:53.301Z,15.14
2023-04-13T16:26:26.691Z,15.21
2023-04-13T16:29:00.260Z,15.30
2023-04-13T16:31:37.556Z,15.41
2023-04-13T16:36:51.572Z,15.59
2023-04-13T16:39:26.676Z,15.47
2023-04-13T16:42:03.217Z,15.51
2023-04-13T16:44:41.282Z,15.60
2023-04-13T16:47:13.846Z,15.65
2023-04-13T16:49:46.317Z,15.71
2023-04-13T16:52:19.891Z,15.79
2023-04-13T16:55:03.030Z,15.84
2023-04-13T16:57:36.976Z,15.89
2023-04-13T17:00:13.798Z,15.91
2023-04-13T17:02:51.779Z,15.94
2023-04-13T17:05:32.425Z,15.89
2023-04-13T17:08:11.606Z,15.77
2023-04-13T17:10:45.100Z,15.57
2023-04-13T17:13:17.440Z,15.43
2023-04-13T17:15:52.309Z,15.30
2023-04-13T17:18:28.155Z,15.22
2023-04-13T17:21:03.495Z,15.13
2023-04-13T17:23:37.315Z,15.02
2023-04-13T17:26:16.600Z,14.91
2023-04-13T17:28:48.580Z,14.79
2023-04-13T17:31:24.153Z,14.71
2023-04-13T17:33:56.892Z,14.63
2023-04-13T17:36:32.610Z,14.58
2023-04-13T17:39:09.089Z,14.54
2023-04-13T17:41:42.134Z,14.49
2023-04-13T17:44:15.348Z,14.45
2023-04-13T17:46:47.392Z,14.40
2023-04-13T17:49:18.857Z,14.37
2023-04-13T17:51:53.902Z,14.35
2023-04-13T17:54:26.481Z,14.33
2023-04-13T17:57:01.475Z,14.30
2023-04-13T17:59:31.454Z,14.27
2023-04-13T18:02:01.749Z,14.21
2023-04-13T18:04:33.237Z,14.14
2023-04-13T18:07:04.630Z,14.05
2023-04-13T18:09:33.971Z,13.97
2023-04-13T18:12:06.172Z,13.86
2023-04-13T18:14:40.163Z,13.78
2023-04-13T18:17:11.585Z,13.69
2023-04-13T18:19:43.031Z,13.56
2023-04-13T18:22:17.904Z,13.44
2023-04-13T18:24:48.335Z,13.31
2023-04-13T18:27:18.012Z,13.19
2023-04-13T18:29:48.875Z,13.06
2023-04-13T18:32:19.269Z,12.97
2023-04-13T18:34:51.088Z,12.87
2023-04-13T18:37:24.420Z,12.79
2023-04-13T18:39:58.800Z,12.65
2023-04-13T18:42:39.285Z,12.55
2023-04-13T18:45:10.264Z,12.45
2023-04-13T18:47:41.759Z,12.33
2023-04-13T18:50:16.843Z,12.21
2023-04-13T18:52:52.633Z,12.12
2023-04-13T18:55:27.361Z,12.00
2023-04-13T18:58:01.891Z,11.89
2023-04-13T19:00:33.517Z,11.78
2023-04-13T19:03:04.126Z,11.68
2023-04-13T19:05:40.736Z,11.58
2023-04-13T19:08:13.906Z,11.49
2023-04-13T19:10:49.333Z,11.39
2023-04-13T19:13:18.496Z,11.30
2023-04-13T19:15:49.466Z,11.18
2023-04-13T19:18:24.333Z,11.08
2023-04-13T19:20:56.223Z,10.98
2023-04-13T19:23:28.442Z,10.88
2023-04-13T19:25:59.609Z,10.80
2023-04-13T19:28:34.209Z,10.71
2023-04-13T19:31:04.375Z,10.63
2023-04-13T19:33:35.631Z,10.54
2023-04-13T19:36:09.642Z,10.47
2023-04-13T19:38:41.965Z,10.40
2023-04-13T19:41:12.974Z,10.32
2023-04-13T19:43:44.518Z,10.24
2023-04-13T19:46:19.650Z,10.14
2023-04-13T19:48:50.464Z,10.02
2023-04-13T19:51:20.586Z,9.93
2023-04-13T19:53:53.710Z,9.84
2023-04-13T19:56:26.933Z,9.72
2023-04-13T19:58:56.925Z,9.63
2023-04-13T20:01:27.222Z,9.55
2023-04-13T20:03:56.724Z,9.51
2023-04-13T20:06:27.399Z,9.44
2023-04-13T20:09:12.129Z,9.36
2023-04-13T20:11:44.869Z,9.25
2023-04-13T20:14:18.544Z,9.17
2023-04-13T20:16:49.154Z,9.07
2023-04-13T20:19:20.196Z,9.01
2023-04-13T20:21:51.755Z,8.95
2023-04-13T20:24:22.484Z,8.90
2023-04-13T20:26:52.078Z,8.84
2023-04-13T20:29:23.807Z,8.79
2023-04-13T20:31:54.366Z,8.73
2023-04-13T20:34:27.795Z,8.67
2023-04-13T20:36:59.966Z,8.60
2023-04-13T20:39:31.715Z,8.54
2023-04-13T20:42:06.506Z,8.48
2023-04-13T20:44:44.829Z,8.41
2023-04-13T20:47:14.585Z,8.36
2023-04-13T20:49:48.989Z,8.32
2023-04-13T20:52:19.041Z,8.25
2023-04-13T20:54:51.174Z,8.23
2023-04-13T20:57:22.088Z,8.17
2023-04-13T20:59:54.732Z,8.10
2023-04-13T21:02:23.897Z,8.02
2023-04-13T21:04:53.953Z,7.96
2023-04-13T21:07:24.739Z,7.90
2023-04-13T21:09:57.140Z,7.86
2023-04-13T21:12:28.717Z,7.87
2023-04-13T21:14:59.029Z,7.89
2023-04-13T21:17:29.005Z,7.90
2023-04-13T21:19:58.617Z,7.94
2023-04-13T21:22:27.484Z,7.98
2023-04-13T21:24:57.483Z,8.02
2023-04-13T21:27:26.134Z,8.08
2023-04-13T21:29:54.656Z,8.11
2023-04-13T21:32:23.852Z,8.16
2023-04-13T21:34:54.822Z,8.21
2023-04-13T21:37:23.540Z,8.25
2023-04-13T21:39:52.297Z,8.28
2023-04-13T21:42:22.775Z,8.29
2023-04-13T21:44:51.432Z,8.30
2023-04-13T21:47:20.103Z,8.31
2023-04-13T21:49:48.884Z,8.33
2023-04-13T21:52:17.517Z,8.31
2023-04-13T21:54:46.168Z,8.31
2023-04-13T21:57:14.760Z,8.30
2023-04-13T21:59:44.788Z,8.28
2023-04-13T22:02:13.530Z,8.28
2023-04-13T22:04:42.471Z,8.26
2023-04-13T22:07:11.192Z,8.24
2023-04-13T22:09:39.841Z,8.23
2023-04-13T22:12:10.420Z,8.22
2023-04-13T22:14:38.976Z,8.19
2023-04-13T22:17:08.982Z,8.18
2023-04-13T22:19:37.510Z,8.16
2023-04-13T22:22:06.069Z,8.15
2023-04-13T22:24:34.611Z,8.14
2023-04-13T22:27:03.488Z,8.13
2023-04-13T22:29:32.527Z,8.11
2023-04-13T22:32:04.074Z,8.09
2023-04-13T22:34:34.734Z,8.08
2023-04-13T22:37:04.964Z,8.08
2023-04-13T22:39:33.751Z,8.05
2023-04-13T22:42:02.431Z,8.01
2023-04-13T22:44:34.194Z,8.00
2023-04-13T22:47:03.458Z,7.97
2023-04-13T22:49:33.675Z,7.95
2023-04-13T22:52:02.407Z,7.92
2023-04-13T22:54:31.194Z,7.90
2023-04-13T22:57:05.071Z,7.85
2023-04-13T22:59:33.946Z,7.80
2023-04-13T23:02:03.962Z,7.76
2023-04-13T23:04:34.191Z,7.72
2023-04-13T23:07:03.001Z,7.67
2023-04-13T23:09:32.202Z,7.61
2023-04-13T23:12:01.561Z,7.55
2023-04-13T23:14:30.165Z,7.49
2023-04-13T23:16:59.464Z,7.45
2023-04-13T23:19:28.066Z,7.39
2023-04-13T23:21:58.062Z,7.34
2023-04-13T23:24:28.598Z,7.30
2023-04-13T23:26:58.120Z,7.25
2023-04-13T23:29:26.778Z,7.19
2023-04-13T23:31:57.137Z,7.13
2023-04-13T23:34:25.717Z,7.06
2023-04-13T23:36:54.386Z,7.01
2023-04-13T23:39:24.318Z,6.96
2023-04-13T23:41:52.964Z,6.90
2023-04-13T23:44:21.491Z,6.84
2023-04-13T23:46:50.926Z,6.81
2023-04-13T23:49:19.635Z,6.77
2023-04-13T23:51:48.468Z,6.74
2023-04-13T23:54:17.149Z,6.68
2023-04-13T23:56:47.284Z,6.63
2023-04-13T23:59:16.065Z,6.58
